createdAt,value
2022-07-27T00:01:40.155Z,15.72
2022-07-27T00:04:10.930Z,15.74
2022-07-27T00:06:37.604Z,15.78
2022-07-27T00:09:04.326Z,15.81
2022-07-27T00:11:31.244Z,15.85
2022-07-27T00:13:57.873Z,15.87
2022-07-27T00:16:24.413Z,15.92
2022-07-27T00:18:50.867Z,15.94
2022-07-27T00:21:17.393Z,15.97
2022-07-27T00:23:43.978Z,16.01
2022-07-27T00:26:10.459Z,16.04
2022-07-27T00:28:36.973Z,16.06
2022-07-27T00:31:03.582Z,16.08
2022-07-27T00:33:30.169Z,16.10
2022-07-27T00:35:56.602Z,16.11
2022-07-27T00:38:23.084Z,16.11
2022-07-27T00:40:49.534Z,16.12
2022-07-27T00:43:16.070Z,16.08
2022-07-27T00:45:42.495Z,16.12
2022-07-27T00:48:08.951Z,16.12
2022-07-27T00:50:35.986Z,16.13
2022-07-27T00:53:04.924Z,16.13
2022-07-27T00:55:33.043Z,16.15
2022-07-27T00:58:00.747Z,16.15
2022-07-27T01:00:28.660Z,16.14
2022-07-27T01:02:57.057Z,16.13
2022-07-27T01:05:24.377Z,16.16
2022-07-27T01:08:03.232Z,16.21
2022-07-27T01:10:29.710Z,16.20
2022-07-27T01:12:56.525Z,16.23
2022-07-27T01:15:22.976Z,16.22
2022-07-27T01:17:49.589Z,16.25
2022-07-27T01:20:16.100Z,16.24
2022-07-27T01:22:42.767Z,16.26
2022-07-27T01:25:10.101Z,16.27
2022-07-27T01:27:37.077Z,16.28
2022-07-27T01:30:24.861Z,16.28
2022-07-27T01:32:51.518Z,16.29
2022-07-27T01:35:18.106Z,16.29
2022-07-27T01:37:46.102Z,16.28
2022-07-27T01:40:14.886Z,16.45
2022-07-27T01:42:41.490Z,16.33
2022-07-27T01:45:08.820Z,16.32
2022-07-27T01:47:38.093Z,16.25
2022-07-27T01:50:05.490Z,16.35
2022-07-27T01:52:31.924Z,16.34
2022-07-27T01:54:58.421Z,16.32
2022-07-27T01:57:24.834Z,16.35
2022-07-27T01:59:52.715Z,16.33
2022-07-27T02:02:19.320Z,16.31
2022-07-27T02:04:46.054Z,16.30
2022-07-27T02:07:12.543Z,16.28
2022-07-27T02:09:38.992Z,16.25
2022-07-27T02:12:24.546Z,16.19
2022-07-27T02:14:50.945Z,16.13
2022-07-27T02:17:17.480Z,16.07
2022-07-27T02:19:45.250Z,16.01
2022-07-27T02:22:11.795Z,15.96
2022-07-27T02:24:38.232Z,15.91
2022-07-27T02:27:05.054Z,15.88
2022-07-27T02:29:31.578Z,15.85
2022-07-27T02:31:58.097Z,15.80
2022-07-27T02:34:24.538Z,15.85
2022-07-27T02:36:50.978Z,15.84
2022-07-27T02:39:17.395Z,15.83
2022-07-27T02:41:46.402Z,15.86
2022-07-27T02:44:14.580Z,15.85
2022-07-27T02:46:41.475Z,15.88
2022-07-27T02:49:08.456Z,15.89
2022-07-27T02:51:36.215Z,15.90
2022-07-27T02:54:06.095Z,15.91
2022-07-27T02:56:32.614Z,15.92
2022-07-27T02:58:59.085Z,15.94
2022-07-27T03:01:25.782Z,15.97
2022-07-27T03:03:52.559Z,15.96
2022-07-27T03:06:19.140Z,15.93
2022-07-27T03:08:45.777Z,16.00
2022-07-27T03:11:12.281Z,16.02
2022-07-27T03:13:38.714Z,16.01
2022-07-27T03:16:06.157Z,16.02
2022-07-27T03:18:32.818Z,16.00
2022-07-27T03:20:59.301Z,15.98
2022-07-27T03:23:25.888Z,15.91
2022-07-27T03:25:52.491Z,15.91
2022-07-27T03:28:18.901Z,15.86
2022-07-27T03:30:45.600Z,15.79
2022-07-27T03:33:12.134Z,15.73
2022-07-27T03:35:38.539Z,15.65
2022-07-27T03:38:05.271Z,15.63
2022-07-27T03:40:33.487Z,15.54
2022-07-27T03:43:00.369Z,15.52
2022-07-27T03:45:27.555Z,15.44
2022-07-27T03:47:54.089Z,15.44
2022-07-27T03:50:20.915Z,15.38
2022-07-27T03:52:47.379Z,15.34
2022-07-27T03:55:14.068Z,15.28
2022-07-27T03:57:40.690Z,15.25
2022-07-27T04:00:10.935Z,15.22
2022-07-27T04:02:37.300Z,15.30
2022-07-27T04:05:04.129Z,15.08
2022-07-27T04:07:30.730Z,15.09
2022-07-27T04:09:57.153Z,15.05
2022-07-27T04:12:23.972Z,15.04
2022-07-27T04:14:51.474Z,15.01
2022-07-27T04:17:53.356Z,15.02
2022-07-27T04:20:04.944Z,15.02
2022-07-27T04:22:31.422Z,15.02
2022-07-27T04:24:57.944Z,15.04
2022-07-27T04:27:25.368Z,15.06
2022-07-27T04:29:51.857Z,15.12
2022-07-27T04:32:18.400Z,15.13
2022-07-27T04:34:44.887Z,15.20
2022-07-27T04:37:11.303Z,15.26
2022-07-27T04:39:37.771Z,15.30
2022-07-27T04:42:04.282Z,15.36
2022-07-27T04:44:30.741Z,15.43
2022-07-27T04:46:57.205Z,15.48
2022-07-27T04:49:23.673Z,15.57
2022-07-27T04:51:50.235Z,15.64
2022-07-27T04:54:16.876Z,15.71
2022-07-27T04:56:43.387Z,15.75
2022-07-27T04:59:10.278Z,15.85
2022-07-27T05:01:36.928Z,15.93
2022-07-27T05:04:05.380Z,16.00
2022-07-27T05:06:32.998Z,16.04
2022-07-27T05:09:00.083Z,16.14
2022-07-27T05:11:26.693Z,16.18
2022-07-27T05:13:53.168Z,16.24
2022-07-27T05:16:19.866Z,16.28
2022-07-27T05:18:46.397Z,16.33
2022-07-27T05:21:12.792Z,16.39
2022-07-27T05:23:39.372Z,16.45
2022-07-27T05:26:05.906Z,16.52
2022-07-27T05:28:32.456Z,16.61
2022-07-27T05:30:59.091Z,16.67
2022-07-27T05:33:25.717Z,16.73
2022-07-27T05:35:52.198Z,16.78
2022-07-27T05:38:18.657Z,16.84
2022-07-27T05:40:46.267Z,16.87
2022-07-27T05:43:12.725Z,16.93
2022-07-27T05:45:39.579Z,16.95
2022-07-27T05:48:06.316Z,16.99
2022-07-27T05:50:32.757Z,17.03
2022-07-27T05:53:00.590Z,17.09
2022-07-27T05:55:27.260Z,17.14
2022-07-27T05:57:53.660Z,17.18
2022-07-27T06:00:20.280Z,17.21
2022-07-27T06:02:46.701Z,17.15
2022-07-27T06:05:15.988Z,17.08
2022-07-27T06:07:59.247Z,16.98
2022-07-27T06:10:27.944Z,16.90
2022-07-27T06:12:54.667Z,16.82
2022-07-27T06:15:21.244Z,16.80
2022-07-27T06:17:49.405Z,16.77
2022-07-27T06:20:16.031Z,16.78
2022-07-27T06:22:54.447Z,16.84
2022-07-27T06:25:22.072Z,16.86
2022-07-27T06:27:49.162Z,16.92
2022-07-27T06:30:17.254Z,16.98
2022-07-27T06:32:44.046Z,17.03
2022-07-27T06:35:12.614Z,17.07
2022-07-27T06:37:43.950Z,17.14
2022-07-27T06:40:13.264Z,17.21
2022-07-27T06:42:40.873Z,17.26
2022-07-27T06:45:08.315Z,17.33
2022-07-27T06:47:34.762Z,17.45
2022-07-27T06:50:01.402Z,17.52
2022-07-27T06:52:27.981Z,17.62
2022-07-27T06:54:54.444Z,17.75
2022-07-27T06:57:20.929Z,17.84
2022-07-27T06:59:47.468Z,17.97
2022-07-27T07:02:13.939Z,18.12
2022-07-27T07:04:40.393Z,18.25
2022-07-27T07:07:07.515Z,18.33
2022-07-27T07:09:34.609Z,18.35
2022-07-27T07:12:02.382Z,18.37
2022-07-27T07:14:29.211Z,18.40
2022-07-27T07:16:55.647Z,18.40
2022-07-27T07:19:22.343Z,18.42
2022-07-27T07:21:49.257Z,18.44
2022-07-27T07:24:15.741Z,18.42
2022-07-27T07:26:42.144Z,18.50
2022-07-27T07:29:09.143Z,18.53
2022-07-27T07:31:36.432Z,18.56
2022-07-27T07:34:03.081Z,18.63
2022-07-27T07:36:29.724Z,18.69
2022-07-27T07:38:56.190Z,18.75
2022-07-27T07:41:23.718Z,18.85
2022-07-27T07:43:50.462Z,18.92
2022-07-27T07:46:17.042Z,18.99
2022-07-27T07:48:44.120Z,19.07
2022-07-27T07:51:11.700Z,19.14
2022-07-27T07:53:41.657Z,19.25
2022-07-27T07:56:08.658Z,19.39
2022-07-27T07:58:35.275Z,19.60
2022-07-27T08:01:01.730Z,19.71
2022-07-27T08:03:28.261Z,19.83
2022-07-27T08:05:54.785Z,19.87
2022-07-27T08:08:21.295Z,19.89
2022-07-27T08:10:51.470Z,20.11
2022-07-27T08:13:22.296Z,19.90
2022-07-27T08:15:50.159Z,19.83
2022-07-27T08:18:16.630Z,19.75
2022-07-27T08:20:43.155Z,19.74
2022-07-27T08:23:09.909Z,19.73
2022-07-27T08:25:39.193Z,19.75
2022-07-27T08:28:06.347Z,19.85
2022-07-27T08:30:34.663Z,19.94
2022-07-27T08:33:03.572Z,20.06
2022-07-27T08:35:32.387Z,20.19
2022-07-27T08:38:00.306Z,20.30
2022-07-27T08:40:44.989Z,20.35
2022-07-27T08:43:18.885Z,20.46
2022-07-27T08:45:57.774Z,20.57
2022-07-27T08:48:25.976Z,20.65
2022-07-27T08:50:53.323Z,20.77
2022-07-27T08:53:22.074Z,20.83
2022-07-27T08:55:49.444Z,20.92
2022-07-27T08:58:16.035Z,21.05
2022-07-27T09:00:45.999Z,21.13
2022-07-27T09:03:19.133Z,21.22
2022-07-27T09:05:55.280Z,21.35
2022-07-27T09:08:30.466Z,21.44
2022-07-27T09:10:59.368Z,21.52
2022-07-27T09:13:31.247Z,21.67
2022-07-27T09:16:18.447Z,21.79
2022-07-27T09:18:45.731Z,21.86
2022-07-27T09:21:20.977Z,21.91
2022-07-27T09:23:53.113Z,21.84
2022-07-27T09:26:33.939Z,21.84
2022-07-27T09:29:06.681Z,21.86
2022-07-27T09:31:50.641Z,21.96
2022-07-27T09:34:28.719Z,22.04
2022-07-27T09:36:57.631Z,22.04
2022-07-27T09:39:26.615Z,22.08
2022-07-27T09:42:01.356Z,22.14
2022-07-27T09:44:42.321Z,22.13
2022-07-27T09:47:40.098Z,22.21
2022-07-27T09:50:21.263Z,22.15
2022-07-27T09:52:47.789Z,22.05
2022-07-27T09:55:14.379Z,22.00
2022-07-27T09:57:58.843Z,22.00
2022-07-27T10:00:26.718Z,21.83
2022-07-27T10:02:53.822Z,21.64
2022-07-27T10:05:23.606Z,21.53
2022-07-27T10:07:52.668Z,21.51
2022-07-27T10:10:21.458Z,21.55
2022-07-27T10:12:54.003Z,21.62
2022-07-27T10:15:21.533Z,21.74
2022-07-27T10:17:53.450Z,21.87
2022-07-27T10:20:19.931Z,22.01
2022-07-27T10:22:58.520Z,22.20
2022-07-27T10:25:26.932Z,22.37
2022-07-27T10:28:10.875Z,22.65
2022-07-27T10:30:39.077Z,22.86
2022-07-27T10:33:37.809Z,23.02
2022-07-27T10:36:04.975Z,23.03
2022-07-27T10:38:52.172Z,23.09
2022-07-27T10:41:25.568Z,23.21
2022-07-27T10:44:23.721Z,23.42
2022-07-27T10:46:54.283Z,23.45
2022-07-27T10:49:23.023Z,23.41
2022-07-27T10:51:53.151Z,23.32
2022-07-27T10:54:22.300Z,23.44
2022-07-27T10:56:51.504Z,23.14
2022-07-27T10:59:58.138Z,23.03
2022-07-27T11:02:38.839Z,22.90
2022-07-27T11:05:05.635Z,22.82
2022-07-27T11:07:42.257Z,22.78
2022-07-27T11:10:12.887Z,22.75
2022-07-27T11:12:41.911Z,22.76
2022-07-27T11:15:09.217Z,22.63
2022-07-27T11:20:23.889Z,22.34
2022-07-27T11:25:40.104Z,22.15
2022-07-27T11:28:10.147Z,22.06
2022-07-27T11:30:37.257Z,22.23
2022-07-27T11:33:04.950Z,22.01
2022-07-27T11:35:31.470Z,21.96
2022-07-27T11:38:03.870Z,22.03
2022-07-27T11:41:12.678Z,22.10
2022-07-27T11:43:33.496Z,22.16
2022-07-27T11:46:23.854Z,22.29
2022-07-27T11:49:10.225Z,22.24
2022-07-27T11:51:48.564Z,22.28
2022-07-27T11:54:20.353Z,22.22
2022-07-27T11:56:50.235Z,22.15
2022-07-27T11:59:28.056Z,22.10
2022-07-27T12:02:01.611Z,22.08
2022-07-27T12:04:33.193Z,22.05
2022-07-27T12:07:10.553Z,22.13
2022-07-27T12:09:43.928Z,22.10
2022-07-27T12:12:10.747Z,22.06
2022-07-27T12:14:39.431Z,21.90
2022-07-27T12:17:19.676Z,21.85
2022-07-27T12:20:03.553Z,21.79
2022-07-27T12:22:34.565Z,21.69
2022-07-27T12:25:12.402Z,21.65
2022-07-27T12:28:06.957Z,21.70
2022-07-27T12:30:40.703Z,21.67
2022-07-27T12:33:24.443Z,21.61
2022-07-27T12:35:51.084Z,21.55
2022-07-27T12:38:17.782Z,21.53
2022-07-27T12:40:50.800Z,21.64
2022-07-27T12:43:20.044Z,21.70
2022-07-27T12:45:48.421Z,21.89
2022-07-27T12:48:17.668Z,22.04
2022-07-27T12:50:46.713Z,22.18
2022-07-27T12:53:15.020Z,22.39
2022-07-27T12:55:43.705Z,22.50
2022-07-27T12:58:11.724Z,22.55
2022-07-27T13:00:38.305Z,22.70
2022-07-27T13:03:06.251Z,22.83
2022-07-27T13:05:34.559Z,22.91
2022-07-27T13:08:03.237Z,23.11
2022-07-27T13:10:29.757Z,23.22
2022-07-27T13:12:56.749Z,23.25
2022-07-27T13:15:23.170Z,23.26
2022-07-27T13:17:49.731Z,23.19
2022-07-27T13:20:17.527Z,23.09
2022-07-27T13:22:44.956Z,23.06
2022-07-27T13:25:16.086Z,22.98
2022-07-27T13:27:43.988Z,22.92
2022-07-27T13:30:11.657Z,22.83
2022-07-27T13:32:39.406Z,22.78
2022-07-27T13:35:07.600Z,22.75
2022-07-27T13:37:34.081Z,22.75
2022-07-27T13:40:00.691Z,22.78
2022-07-27T13:42:27.155Z,22.88
2022-07-27T13:45:11.024Z,22.91
2022-07-27T13:47:39.901Z,23.02
2022-07-27T13:50:15.168Z,23.08
2022-07-27T13:52:44.841Z,23.14
2022-07-27T13:55:13.143Z,23.21
2022-07-27T13:57:39.588Z,23.36
2022-07-27T14:00:06.844Z,23.48
2022-07-27T14:02:33.324Z,23.51
2022-07-27T14:05:01.237Z,23.49
2022-07-27T14:07:29.579Z,23.40
2022-07-27T14:10:14.623Z,23.22
2022-07-27T14:12:41.161Z,23.17
2022-07-27T14:15:08.141Z,22.98
2022-07-27T14:17:34.816Z,22.94
2022-07-27T14:20:01.303Z,22.85
2022-07-27T14:22:27.818Z,22.82
2022-07-27T14:24:54.881Z,22.74
2022-07-27T14:27:21.366Z,22.68
2022-07-27T14:29:47.886Z,22.70
2022-07-27T14:32:15.717Z,22.80
2022-07-27T14:34:44.150Z,22.85
2022-07-27T14:37:10.795Z,23.09
2022-07-27T14:39:37.223Z,23.22
2022-07-27T14:42:05.909Z,23.29
2022-07-27T14:44:34.780Z,23.42
2022-07-27T14:47:01.440Z,23.49
2022-07-27T14:49:28.154Z,23.60
2022-07-27T14:51:54.711Z,23.76
2022-07-27T14:54:21.299Z,23.93
2022-07-27T14:56:48.365Z,24.10
2022-07-27T14:59:15.271Z,24.29
2022-07-27T15:01:42.183Z,24.37
2022-07-27T15:04:08.882Z,24.49
2022-07-27T15:06:39.040Z,24.68
2022-07-27T15:09:06.386Z,24.83
2022-07-27T15:11:33.042Z,24.79
2022-07-27T15:13:59.480Z,24.78
2022-07-27T15:16:26.070Z,24.54
2022-07-27T15:18:52.877Z,24.30
2022-07-27T15:21:19.555Z,24.18
2022-07-27T15:23:46.164Z,24.10
2022-07-27T15:26:13.296Z,24.11
2022-07-27T15:28:40.579Z,24.06
2022-07-27T15:31:07.057Z,24.11
2022-07-27T15:33:33.665Z,24.09
2022-07-27T15:36:00.274Z,23.97
2022-07-27T15:38:26.789Z,23.79
2022-07-27T15:40:53.351Z,23.55
2022-07-27T15:43:19.979Z,23.29
2022-07-27T15:45:51.062Z,23.18
2022-07-27T15:48:20.065Z,23.07
2022-07-27T15:50:49.881Z,23.03
2022-07-27T15:53:18.491Z,23.04
2022-07-27T15:55:45.442Z,23.12
2022-07-27T15:58:17.663Z,23.17
2022-07-27T16:00:45.054Z,23.16
2022-07-27T16:03:12.892Z,23.21
2022-07-27T16:05:42.769Z,23.30
2022-07-27T16:08:10.155Z,23.29
2022-07-27T16:10:38.467Z,23.29
2022-07-27T16:13:05.936Z,23.31
2022-07-27T16:15:52.166Z,23.31
2022-07-27T16:18:18.709Z,23.37
2022-07-27T16:20:45.404Z,23.33
2022-07-27T16:23:18.713Z,23.22
2022-07-27T16:26:04.109Z,23.08
2022-07-27T16:28:33.112Z,22.98
2022-07-27T16:30:59.654Z,22.84
2022-07-27T16:33:26.211Z,22.87
2022-07-27T16:35:52.838Z,22.84
2022-07-27T16:38:19.527Z,22.79
2022-07-27T16:40:46.165Z,22.80
2022-07-27T16:43:12.579Z,22.70
2022-07-27T16:45:39.389Z,22.55
2022-07-27T16:48:06.266Z,22.43
2022-07-27T16:50:32.924Z,22.39
2022-07-27T16:53:01.273Z,22.31
2022-07-27T16:55:27.988Z,22.30
2022-07-27T16:57:55.841Z,22.15
2022-07-27T17:00:22.301Z,22.05
2022-07-27T17:02:48.763Z,21.93
2022-07-27T17:05:15.241Z,21.83
2022-07-27T17:07:42.810Z,21.70
2022-07-27T17:10:10.028Z,21.64
2022-07-27T17:12:38.758Z,21.46
2022-07-27T17:15:07.048Z,21.26
2022-07-27T17:17:34.340Z,21.10
2022-07-27T17:20:00.894Z,20.93
2022-07-27T17:22:27.557Z,20.77
2022-07-27T17:24:54.035Z,20.61
2022-07-27T17:27:20.933Z,20.46
2022-07-27T17:29:47.522Z,20.27
2022-07-27T17:32:13.982Z,20.21
2022-07-27T17:34:41.641Z,20.21
2022-07-27T17:37:08.191Z,20.27
2022-07-27T17:39:35.482Z,20.35
2022-07-27T17:42:02.119Z,20.37
2022-07-27T17:44:28.656Z,20.40
2022-07-27T17:46:55.241Z,20.38
2022-07-27T17:49:21.846Z,20.41
2022-07-27T17:51:48.314Z,20.44
2022-07-27T17:54:14.787Z,20.46
2022-07-27T17:56:41.749Z,20.43
2022-07-27T17:59:34.593Z,20.31
2022-07-27T18:01:56.460Z,20.21
2022-07-27T18:04:23.132Z,20.07
2022-07-27T18:06:49.785Z,19.92
2022-07-27T18:09:17.161Z,19.81
2022-07-27T18:11:43.913Z,19.73
2022-07-27T18:14:10.589Z,19.59
2022-07-27T18:16:40.614Z,19.50
2022-07-27T18:19:07.381Z,19.57
2022-07-27T18:21:34.763Z,19.29
2022-07-27T18:24:01.354Z,19.20
2022-07-27T18:26:27.820Z,19.10
2022-07-27T18:28:55.052Z,19.07
2022-07-27T18:31:21.811Z,19.03
2022-07-27T18:33:50.639Z,18.94
2022-07-27T18:36:19.451Z,18.97
2022-07-27T18:38:46.131Z,18.95
2022-07-27T18:41:19.851Z,18.94
2022-07-27T18:43:53.206Z,18.89
2022-07-27T18:46:21.574Z,18.84
2022-07-27T18:48:48.895Z,18.78
2022-07-27T18:51:16.951Z,18.72
2022-07-27T18:53:46.497Z,18.64
2022-07-27T18:56:12.928Z,18.60
2022-07-27T18:58:40.576Z,18.52
2022-07-27T19:01:09.286Z,18.45
2022-07-27T19:03:37.225Z,18.35
2022-07-27T19:06:06.404Z,18.27
2022-07-27T19:08:35.246Z,18.18
2022-07-27T19:11:01.673Z,18.07
2022-07-27T19:13:28.165Z,17.99
2022-07-27T19:15:54.586Z,17.89
2022-07-27T19:18:23.500Z,17.79
2022-07-27T19:20:50.468Z,17.71
2022-07-27T19:23:17.040Z,17.59
2022-07-27T19:25:45.121Z,17.51
2022-07-27T19:28:16.018Z,17.45
2022-07-27T19:30:42.635Z,17.31
2022-07-27T19:33:09.363Z,17.19
2022-07-27T19:35:36.013Z,17.14
2022-07-27T19:38:03.701Z,17.07
2022-07-27T19:40:43.973Z,16.98
2022-07-27T19:43:11.476Z,16.90
2022-07-27T19:45:38.176Z,16.81
2022-07-27T19:48:05.907Z,16.72
2022-07-27T19:50:32.816Z,16.59
2022-07-27T19:52:59.500Z,16.53
2022-07-27T19:55:26.094Z,16.47
2022-07-27T19:57:52.701Z,16.35
2022-07-27T20:00:19.522Z,16.33
2022-07-27T20:02:47.742Z,16.25
2022-07-27T20:05:14.664Z,16.18
2022-07-27T20:07:41.541Z,16.13
2022-07-27T20:10:08.318Z,16.10
2022-07-27T20:12:34.817Z,16.06
2022-07-27T20:15:01.611Z,16.03
2022-07-27T20:17:28.020Z,16.01
2022-07-27T20:19:54.739Z,15.97
2022-07-27T20:22:21.251Z,15.98
2022-07-27T20:24:47.683Z,15.94
2022-07-27T20:27:14.219Z,15.90
2022-07-27T20:29:40.678Z,15.83
2022-07-27T20:32:07.700Z,15.73
2022-07-27T20:34:34.305Z,15.64
2022-07-27T20:37:00.858Z,15.51
2022-07-27T20:39:27.267Z,15.41
2022-07-27T20:41:53.779Z,15.30
2022-07-27T20:44:21.044Z,15.20
2022-07-27T20:46:47.777Z,15.08
2022-07-27T20:49:14.713Z,14.97
2022-07-27T20:51:42.076Z,14.87
2022-07-27T20:54:08.578Z,14.77
2022-07-27T20:56:35.047Z,14.68
2022-07-27T20:59:01.755Z,14.58
2022-07-27T21:01:29.818Z,14.50
2022-07-27T21:03:56.336Z,14.40
2022-07-27T21:06:22.948Z,14.30
2022-07-27T21:08:49.631Z,14.23
2022-07-27T21:11:16.249Z,14.14
2022-07-27T21:13:42.751Z,14.05
2022-07-27T21:16:09.205Z,13.97
2022-07-27T21:18:35.920Z,13.82
2022-07-27T21:21:02.721Z,13.80
2022-07-27T21:23:47.867Z,13.72
2022-07-27T21:26:16.237Z,13.65
2022-07-27T21:28:45.251Z,13.60
2022-07-27T21:31:11.732Z,13.55
2022-07-27T21:33:39.993Z,13.51
2022-07-27T21:36:07.202Z,13.51
2022-07-27T21:38:33.818Z,13.46
2022-07-27T21:41:00.290Z,13.54
2022-07-27T21:43:26.780Z,13.57
2022-07-27T21:45:53.308Z,13.61
2022-07-27T21:48:19.921Z,13.65
2022-07-27T21:50:46.436Z,13.72
2022-07-27T21:53:12.860Z,13.77
2022-07-27T21:55:40.822Z,13.84
2022-07-27T21:58:09.976Z,13.87
2022-07-27T22:00:36.447Z,13.94
2022-07-27T22:03:02.861Z,14.05
2022-07-27T22:05:29.422Z,14.13
2022-07-27T22:07:57.490Z,14.22
2022-07-27T22:10:23.997Z,14.30
2022-07-27T22:12:50.721Z,14.37
2022-07-27T22:15:17.426Z,14.39
2022-07-27T22:17:46.133Z,14.50
2022-07-27T22:20:18.282Z,14.54
2022-07-27T22:22:44.932Z,14.58
2022-07-27T22:25:11.315Z,14.58
2022-07-27T22:27:38.077Z,14.58
2022-07-27T22:30:05.564Z,14.56
2022-07-27T22:32:31.994Z,14.51
2022-07-27T22:34:58.539Z,14.45
2022-07-27T22:37:25.557Z,14.39
2022-07-27T22:39:52.066Z,14.32
2022-07-27T22:42:18.816Z,14.24
2022-07-27T22:44:45.361Z,14.18
2022-07-27T22:47:12.112Z,14.01
2022-07-27T22:49:38.854Z,14.03
2022-07-27T22:52:05.841Z,13.93
2022-07-27T22:54:34.612Z,13.89
2022-07-27T22:57:01.152Z,13.83
2022-07-27T22:59:27.629Z,13.75
2022-07-27T23:01:54.257Z,13.69
2022-07-27T23:04:21.097Z,13.61
2022-07-27T23:06:47.681Z,13.57
2022-07-27T23:09:14.745Z,13.50
2022-07-27T23:11:41.542Z,13.46
2022-07-27T23:14:07.990Z,13.39
2022-07-27T23:16:35.042Z,13.34
2022-07-27T23:19:01.636Z,13.24
2022-07-27T23:21:28.133Z,13.17
2022-07-27T23:23:54.541Z,13.09
2022-07-27T23:26:22.966Z,12.99
2022-07-27T23:28:52.429Z,12.89
2022-07-27T23:31:18.995Z,12.81
2022-07-27T23:33:45.511Z,12.73
2022-07-27T23:36:11.935Z,12.64
2022-07-27T23:38:38.405Z,12.55
2022-07-27T23:41:04.888Z,12.46
2022-07-27T23:43:31.448Z,12.35
2022-07-27T23:45:57.886Z,12.32
2022-07-27T23:48:25.156Z,12.24
2022-07-27T23:50:51.991Z,12.16
2022-07-27T23:53:18.593Z,12.11
2022-07-27T23:55:45.202Z,12.02
2022-07-27T23:58:11.757Z,11.98
